Petrolia, Canada
Current Conditions -  °F | °C
As of 7:00 AM on Saturday 25 Oct 2014 (Local Time) from CYZR Reporting Station
Haze Haze  
Wind Chill: 44°   Ceiling: 10000
Heat Index: 48°   Visibility: 2.5mi
Dew Point: 46°   Wind: 9mph
Humidity: 93%   Direction: 200°SSW
Pressure: 29.83"   Gusts: NA
Location:  42.88°N, 82.15°W
Report Text: CYZR 251100Z AUTO 20008KT 2 1/2SM BR OVC100 09/08 A2983 RMK SLP103
Loading
Personal Weather Stations






























Interactive Weather Map
Tropical Storm Tracking
New forecast layout! Learn more

10-Day Weather Forecast

Advertisements
Track Severe Weather on mobile